sensor_id;sensor_type;location;lat;lon;timestamp;pressure;altitude;pressure_sealevel;temperature;humidity
20013;BME280;10167;42.852;23.042;2022-09-03T00:00:34;94868.31;;;15.98;100.00
20013;BME280;10167;42.852;23.042;2022-09-03T00:03:08;94872.59;;;15.94;100.00
20013;BME280;10167;42.852;23.042;2022-09-03T00:05:44;94876.84;;;15.95;100.00
20013;BME280;10167;42.852;23.042;2022-09-03T00:08:19;94876.59;;;16.02;100.00
20013;BME280;10167;42.852;23.042;2022-09-03T00:10:56;94872.81;;;16.03;100.00
20013;BME280;10167;42.852;23.042;2022-09-03T00:13:31;94883.25;;;16.05;100.00
20013;BME280;10167;42.852;23.042;2022-09-03T00:16:05;94877.91;;;16.10;100.00
20013;BME280;10167;42.852;23.042;2022-09-03T00:18:42;94878.72;;;16.00;100.00
20013;BME280;10167;42.852;23.042;2022-09-03T00:21:14;94877.91;;;16.10;100.00
20013;BME280;10167;42.852;23.042;2022-09-03T00:23:46;94867.75;;;16.07;100.00
20013;BME280;10167;42.852;23.042;2022-09-03T00:26:22;94865.63;;;16.09;100.00
20013;BME280;10167;42.852;23.042;2022-09-03T00:28:56;94861.34;;;16.13;100.00
20013;BME280;10167;42.852;23.042;2022-09-03T00:31:30;94859.75;;;16.12;100.00
20013;BME280;10167;42.852;23.042;2022-09-03T00:34:06;94863.22;;;16.07;100.00
20013;BME280;10167;42.852;23.042;2022-09-03T00:36:40;94864.28;;;16.11;100.00
20013;BME280;10167;42.852;23.042;2022-09-03T00:39:11;94856.53;;;16.10;100.00
20013;BME280;10167;42.852;23.042;2022-09-03T00:41:51;94866.94;;;16.06;100.00
20013;BME280;10167;42.852;23.042;2022-09-03T00:47:30;94875.19;;;16.15;100.00
20013;BME280;10167;42.852;23.042;2022-09-03T00:50:07;94885.34;;;16.18;100.00
20013;BME280;10167;42.852;23.042;2022-09-03T00:52:47;94879.47;;;16.21;100.00
20013;BME280;10167;42.852;23.042;2022-09-03T00:55:30;94880.78;;;16.28;100.00
20013;BME280;10167;42.852;23.042;2022-09-03T00:58:20;94876.50;;;16.27;100.00
20013;BME280;10167;42.852;23.042;2022-09-03T01:00:53;94871.47;;;16.16;100.00
20013;BME280;10167;42.852;23.042;2022-09-03T01:03:31;94873.28;;;16.30;100.00
20013;BME280;10167;42.852;23.042;2022-09-03T01:06:12;94876.53;;;16.22;100.00
20013;BME280;10167;42.852;23.042;2022-09-03T01:09:08;94866.38;;;16.19;100.00
20013;BME280;10167;42.852;23.042;2022-09-03T01:11:48;94874.94;;;16.16;100.00
20013;BME280;10167;42.852;23.042;2022-09-03T01:14:36;94877.91;;;16.10;100.00
20013;BME280;10167;42.852;23.042;2022-09-03T01:17:13;94880.03;;;16.13;100.00
20013;BME280;10167;42.852;23.042;2022-09-03T01:20:00;94884.31;;;16.14;100.00
20013;BME280;10167;42.852;23.042;2022-09-03T01:25:35;94886.44;;;16.07;100.00
20013;BME280;10167;42.852;23.042;2022-09-03T01:28:20;94895.00;;;16.04;100.00
20013;BME280;10167;42.852;23.042;2022-09-03T01:30:56;94892.34;;;15.98;100.00
20013;BME280;10167;42.852;23.042;2022-09-03T01:33:33;94901.16;;;15.94;100.00
20013;BME280;10167;42.852;23.042;2022-09-03T01:36:10;94903.84;;;15.99;100.00
20013;BME280;10167;42.852;23.042;2022-09-03T01:38:44;94905.44;;;16.00;100.00
20013;BME280;10167;42.852;23.042;2022-09-03T01:41:22;94899.28;;;16.05;100.00
20013;BME280;10167;42.852;23.042;2022-09-03T01:44:19;94909.72;;;16.01;100.00
20013;BME280;10167;42.852;23.042;2022-09-03T01:46:55;94900.59;;;16.07;100.00
20013;BME280;10167;42.852;23.042;2022-09-03T01:49:33;94902.72;;;16.15;100.00
20013;BME280;10167;42.852;23.042;2022-09-03T01:52:11;94905.66;;;16.24;100.00
20013;BME280;10167;42.852;23.042;2022-09-03T01:54:51;94898.72;;;16.23;100.00
20013;BME280;10167;42.852;23.042;2022-09-03T01:57:33;94904.84;;;16.23;100.00
20013;BME280;10167;42.852;23.042;2022-09-03T02:00:08;94911.25;;;16.22;100.00
20013;BME280;10167;42.852;23.042;2022-09-03T02:02:40;94908.59;;;16.22;100.00
20013;BME280;10167;42.852;23.042;2022-09-03T02:05:12;94912.31;;;16.26;100.00
20013;BME280;10167;42.852;23.042;2022-09-03T02:07:43;94911.25;;;16.27;100.00
20013;BME280;10167;42.852;23.042;2022-09-03T02:10:16;94905.88;;;16.27;100.00
20013;BME280;10167;42.852;23.042;2022-09-03T02:12:48;94905.66;;;16.24;100.00
20013;BME280;10167;42.852;23.042;2022-09-03T02:15:22;94913.13;;;16.17;100.00
20013;BME280;10167;42.852;23.042;2022-09-03T02:17:55;94909.69;;;16.11;100.00
20013;BME280;10167;42.852;23.042;2022-09-03T02:20:27;94913.97;;;16.07;100.00
20013;BME280;10167;42.852;23.042;2022-09-03T02:22:57;94920.09;;;16.13;100.00
20013;BME280;10167;42.852;23.042;2022-09-03T02:25:31;94927.31;;;16.07;100.00
20013;BME280;10167;42.852;23.042;2022-09-03T02:28:03;94920.91;;;16.13;100.00
20013;BME280;10167;42.852;23.042;2022-09-03T02:30:45;94915.84;;;16.12;100.00
20013;BME280;10167;42.852;23.042;2022-09-03T02:33:14;94912.38;;;16.11;100.00
20013;BME280;10167;42.852;23.042;2022-09-03T02:35:43;94902.22;;;16.13;100.00
20013;BME280;10167;42.852;23.042;2022-09-03T02:38:16;94896.59;;;16.05;100.00
20013;BME280;10167;42.852;23.042;2022-09-03T02:40:45;94906.22;;;16.06;100.00
20013;BME280;10167;42.852;23.042;2022-09-03T02:43:18;94901.44;;;16.03;100.00
20013;BME280;10167;42.852;23.042;2022-09-03T02:45:58;94912.63;;;15.94;100.00
20013;BME280;10167;42.852;23.042;2022-09-03T02:48:29;94906.50;;;15.99;100.00
20013;BME280;10167;42.852;23.042;2022-09-03T02:50:58;94906.50;;;15.99;100.00
20013;BME280;10167;42.852;23.042;2022-09-03T02:53:27;94904.63;;;16.10;100.00
20013;BME280;10167;42.852;23.042;2022-09-03T02:55:58;94916.38;;;16.14;100.00
20013;BME280;10167;42.852;23.042;2022-09-03T02:58:28;94911.00;;;16.19;100.00
20013;BME280;10167;42.852;23.042;2022-09-03T03:01:00;94910.72;;;16.15;100.00
20013;BME280;10167;42.852;23.042;2022-09-03T03:03:29;94918.22;;;16.03;100.00
20013;BME280;10167;42.852;23.042;2022-09-03T03:06:00;94915.00;;;16.21;100.00
20013;BME280;10167;42.852;23.042;2022-09-03T03:08:30;94913.41;;;16.20;100.00
20013;BME280;10167;42.852;23.042;2022-09-03T03:11:01;94914.47;;;16.14;100.00
20013;BME280;10167;42.852;23.042;2022-09-03T03:13:30;94915.03;;;16.11;100.00
20013;BME280;10167;42.852;23.042;2022-09-03T03:16:02;94917.69;;;16.06;100.00
20013;BME280;10167;42.852;23.042;2022-09-03T03:18:32;94910.50;;;15.96;100.00
20013;BME280;10167;42.852;23.042;2022-09-03T03:21:04;94918.00;;;15.84;100.00
20013;BME280;10167;42.852;23.042;2022-09-03T03:23:33;94928.94;;;15.88;100.00
20013;BME280;10167;42.852;23.042;2022-09-03T03:26:03;94926.84;;;15.80;100.00
20013;BME280;10167;42.852;23.042;2022-09-03T03:28:32;94911.59;;;15.80;100.00
20013;BME280;10167;42.852;23.042;2022-09-03T03:31:06;94905.47;;;15.80;100.00
20013;BME280;10167;42.852;23.042;2022-09-03T03:33:36;94904.09;;;15.82;100.00
20013;BME280;10167;42.852;23.042;2022-09-03T03:36:07;94916.69;;;15.77;100.00
20013;BME280;10167;42.852;23.042;2022-09-03T03:38:37;94920.69;;;15.79;100.00
20013;BME280;10167;42.852;23.042;2022-09-03T03:41:07;94917.47;;;15.82;100.00
20013;BME280;10167;42.852;23.042;2022-09-03T03:43:36;94909.19;;;15.84;100.00
20013;BME280;10167;42.852;23.042;2022-09-03T03:46:07;94922.56;;;15.79;100.00
20013;BME280;10167;42.852;23.042;2022-09-03T03:48:37;94919.31;;;15.82;100.00
20013;BME280;10167;42.852;23.042;2022-09-03T03:51:07;94919.09;;;15.78;100.00
20013;BME280;10167;42.852;23.042;2022-09-03T03:53:39;94910.00;;;15.89;100.00
20013;BME280;10167;42.852;23.042;2022-09-03T03:56:09;94902.25;;;15.83;100.00
20013;BME280;10167;42.852;23.042;2022-09-03T03:58:39;94904.09;;;15.82;100.00
20013;BME280;10167;42.852;23.042;2022-09-03T04:01:13;94905.72;;;15.78;100.00
20013;BME280;10167;42.852;23.042;2022-09-03T04:03:43;94911.59;;;15.70;100.00
20013;BME280;10167;42.852;23.042;2022-09-03T04:06:15;94922.03;;;15.67;100.00
20013;BME280;10167;42.852;23.042;2022-09-03T04:08:46;94920.69;;;15.64;100.00
20013;BME280;10167;42.852;23.042;2022-09-03T04:11:18;94928.66;;;15.49;100.00
20013;BME280;10167;42.852;23.042;2022-09-03T04:13:47;94929.22;;;15.61;100.00
20013;BME280;10167;42.852;23.042;2022-09-03T04:16:20;94923.31;;;15.54;100.00
20013;BME280;10167;42.852;23.042;2022-09-03T04:18:49;94925.50;;;15.67;100.00
20013;BME280;10167;42.852;23.042;2022-09-03T04:21:20;94929.50;;;15.65;100.00
20013;BME280;10167;42.852;23.042;2022-09-03T04:23:50;94933.50;;;15.72;100.00
20013;BME280;10167;42.852;23.042;2022-09-03T04:26:22;94937.50;;;15.75;100.00
20013;BME280;10167;42.852;23.042;2022-09-03T04:28:51;94944.16;;;15.72;100.00
20013;BME280;10167;42.852;23.042;2022-09-03T04:31:21;94952.44;;;15.66;100.00
20013;BME280;10167;42.852;23.042;2022-09-03T04:33:50;94959.38;;;15.72;100.00
20013;BME280;10167;42.852;23.042;2022-09-03T04:36:21;94955.38;;;15.69;100.00
20013;BME280;10167;42.852;23.042;2022-09-03T04:38:52;94945.50;;;15.65;100.00
20013;BME280;10167;42.852;23.042;2022-09-03T04:41:23;94954.59;;;15.69;100.00
20013;BME280;10167;42.852;23.042;2022-09-03T04:43:54;94971.94;;;15.66;100.00
20013;BME280;10167;42.852;23.042;2022-09-03T04:46:27;94971.38;;;15.69;100.00
20013;BME280;10167;42.852;23.042;2022-09-03T04:49:00;94978.06;;;15.72;100.00
20013;BME280;10167;42.852;23.042;2022-09-03T04:51:30;94981.28;;;15.74;100.00
20013;BME280;10167;42.852;23.042;2022-09-03T04:54:00;94985.56;;;15.80;100.00
20013;BME280;10167;42.852;23.042;2022-09-03T04:56:31;94992.47;;;15.71;100.00
20013;BME280;10167;42.852;23.042;2022-09-03T04:59:02;94991.16;;;15.73;100.00
20013;BME280;10167;42.852;23.042;2022-09-03T05:01:34;94994.34;;;15.80;100.00
20013;BME280;10167;42.852;23.042;2022-09-03T05:04:04;94997.56;;;15.87;100.00
20013;BME280;10167;42.852;23.042;2022-09-03T05:06:34;94988.50;;;15.88;100.00
20013;BME280;10167;42.852;23.042;2022-09-03T05:09:04;94993.56;;;15.95;100.00
20013;BME280;10167;42.852;23.042;2022-09-03T05:11:33;94992.50;;;16.01;100.00
20013;BME280;10167;42.852;23.042;2022-09-03T05:14:02;94983.16;;;16.09;100.00
20013;BME280;10167;42.852;23.042;2022-09-03T05:16:33;94983.94;;;16.14;100.00
20013;BME280;10167;42.852;23.042;2022-09-03T05:19:03;94985.25;;;16.17;100.00
20013;BME280;10167;42.852;23.042;2022-09-03T05:21:34;94986.34;;;16.21;100.00
20013;BME280;10167;42.852;23.042;2022-09-03T05:24:04;94985.50;;;16.25;100.00
20013;BME280;10167;42.852;23.042;2022-09-03T05:26:38;94984.72;;;16.30;100.00
20013;BME280;10167;42.852;23.042;2022-09-03T05:29:08;94991.41;;;16.32;100.00
20013;BME280;10167;42.852;23.042;2022-09-03T05:31:38;94992.75;;;16.35;100.00
20013;BME280;10167;42.852;23.042;2022-09-03T05:34:07;94988.72;;;16.48;100.00
20013;BME280;10167;42.852;23.042;2022-09-03T05:36:42;94995.09;;;16.57;100.00
20013;BME280;10167;42.852;23.042;2022-09-03T05:39:15;95002.06;;;16.48;100.00
20013;BME280;10167;42.852;23.042;2022-09-03T05:41:44;94995.13;;;16.47;100.00
20013;BME280;10167;42.852;23.042;2022-09-03T05:44:13;95003.13;;;16.52;100.00
20013;BME280;10167;42.852;23.042;2022-09-03T05:46:43;94997.50;;;16.58;100.00
20013;BME280;10167;42.852;23.042;2022-09-03T05:49:12;94997.75;;;16.72;100.00
20013;BME280;10167;42.852;23.042;2022-09-03T05:51:41;94997.16;;;16.85;100.00
20013;BME280;10167;42.852;23.042;2022-09-03T05:54:11;94993.16;;;16.88;100.00
20013;BME280;10167;42.852;23.042;2022-09-03T05:56:40;94998.72;;;16.96;100.00
20013;BME280;10167;42.852;23.042;2022-09-03T05:59:09;94998.50;;;16.93;100.00
20013;BME280;10167;42.852;23.042;2022-09-03T06:01:41;95000.38;;;16.87;100.00
20013;BME280;10167;42.852;23.042;2022-09-03T06:04:20;95005.47;;;16.84;100.00
20013;BME280;10167;42.852;23.042;2022-09-03T06:06:49;95007.88;;;16.85;100.00
20013;BME280;10167;42.852;23.042;2022-09-03T06:09:19;95001.97;;;16.88;100.00
20013;BME280;10167;42.852;23.042;2022-09-03T06:11:50;95014.78;;;17.01;100.00
20013;BME280;10167;42.852;23.042;2022-09-03T06:14:20;95016.28;;;17.18;100.00
20013;BME280;10167;42.852;23.042;2022-09-03T06:16:50;95007.66;;;17.36;100.00
20013;BME280;10167;42.852;23.042;2022-09-03T06:19:21;95004.88;;;17.51;100.00
20013;BME280;10167;42.852;23.042;2022-09-03T06:21:50;95013.69;;;17.57;100.00
20013;BME280;10167;42.852;23.042;2022-09-03T06:24:19;95022.25;;;17.59;100.00
20013;BME280;10167;42.852;23.042;2022-09-03T06:26:52;95020.41;;;17.54;100.00
20013;BME280;10167;42.852;23.042;2022-09-03T06:29:22;95023.34;;;17.53;100.00
20013;BME280;10167;42.852;23.042;2022-09-03T06:31:51;95016.13;;;17.53;100.00
20013;BME280;10167;42.852;23.042;2022-09-03T06:34:21;95020.09;;;17.66;100.00
20013;BME280;10167;42.852;23.042;2022-09-03T06:36:52;95021.38;;;18.07;100.00
20013;BME280;10167;42.852;23.042;2022-09-03T06:39:21;95019.59;;;18.32;100.00
20013;BME280;10167;42.852;23.042;2022-09-03T06:41:52;95022.81;;;18.86;100.00
20013;BME280;10167;42.852;23.042;2022-09-03T06:44:32;95021.75;;;19.11;100.00
20013;BME280;10167;42.852;23.042;2022-09-03T06:47:01;95028.91;;;19.40;100.00
20013;BME280;10167;42.852;23.042;2022-09-03T06:49:31;95034.19;;;19.50;100.00
20013;BME280;10167;42.852;23.042;2022-09-03T06:52:01;95034.63;;;19.33;100.00
20013;BME280;10167;42.852;23.042;2022-09-03T06:54:30;95028.59;;;19.22;100.00
20013;BME280;10167;42.852;23.042;2022-09-03T06:56:59;95033.53;;;19.34;100.00
20013;BME280;10167;42.852;23.042;2022-09-03T06:59:28;95037.81;;;19.35;100.00
20013;BME280;10167;42.852;23.042;2022-09-03T07:01:58;95033.09;;;19.27;100.00
20013;BME280;10167;42.852;23.042;2022-09-03T07:04:30;95037.97;;;19.49;100.00
20013;BME280;10167;42.852;23.042;2022-09-03T07:07:01;95045.22;;;19.43;100.00
20013;BME280;10167;42.852;23.042;2022-09-03T07:09:30;95048.84;;;19.34;100.00
20013;BME280;10167;42.852;23.042;2022-09-03T07:12:02;95044.28;;;19.10;100.00
20013;BME280;10167;42.852;23.042;2022-09-03T07:14:31;95041.88;;;19.09;100.00
20013;BME280;10167;42.852;23.042;2022-09-03T07:17:00;95044.13;;;19.02;100.00
20013;BME280;10167;42.852;23.042;2022-09-03T07:19:30;95045.09;;;18.87;100.00
20013;BME280;10167;42.852;23.042;2022-09-03T07:21:59;95044.13;;;18.78;100.00
20013;BME280;10167;42.852;23.042;2022-09-03T07:24:28;95051.75;;;18.66;100.00
20013;BME280;10167;42.852;23.042;2022-09-03T07:26:57;95054.94;;;18.68;100.00
20013;BME280;10167;42.852;23.042;2022-09-03T07:29:26;95059.38;;;18.82;100.00
20013;BME280;10167;42.852;23.042;2022-09-03T07:31:55;95063.19;;;18.76;100.00
20013;BME280;10167;42.852;23.042;2022-09-03T07:34:24;95069.81;;;19.08;100.00
20013;BME280;10167;42.852;23.042;2022-09-03T07:36:55;95067.09;;;19.13;100.00
20013;BME280;10167;42.852;23.042;2022-09-03T07:39:24;95069.25;;;19.11;100.00
20013;BME280;10167;42.852;23.042;2022-09-03T07:41:53;95067.19;;;19.03;100.00
20013;BME280;10167;42.852;23.042;2022-09-03T07:44:24;95074.28;;;19.17;100.00
20013;BME280;10167;42.852;23.042;2022-09-03T07:46:54;95073.25;;;19.13;100.00
20013;BME280;10167;42.852;23.042;2022-09-03T07:49:23;95075.31;;;19.21;100.00
20013;BME280;10167;42.852;23.042;2022-09-03T07:51:52;95077.66;;;19.28;100.00
20013;BME280;10167;42.852;23.042;2022-09-03T07:54:23;95078.50;;;19.23;100.00
20013;BME280;10167;42.852;23.042;2022-09-03T07:56:53;95080.47;;;19.18;100.00
20013;BME280;10167;42.852;23.042;2022-09-03T07:59:23;95077.59;;;19.09;100.00
20013;BME280;10167;42.852;23.042;2022-09-03T08:01:52;95074.69;;;19.06;100.00
20013;BME280;10167;42.852;23.042;2022-09-03T08:04:21;95078.06;;;19.16;100.00
20013;BME280;10167;42.852;23.042;2022-09-03T08:06:50;95074.38;;;19.31;100.00
20013;BME280;10167;42.852;23.042;2022-09-03T08:09:23;95074.19;;;19.28;100.00
20013;BME280;10167;42.852;23.042;2022-09-03T08:11:52;95070.81;;;19.41;100.00
20013;BME280;10167;42.852;23.042;2022-09-03T08:14:21;95082.53;;;19.50;100.00
20013;BME280;10167;42.852;23.042;2022-09-03T08:16:50;95080.13;;;19.48;100.00
20013;BME280;10167;42.852;23.042;2022-09-03T08:19:19;95073.38;;;19.51;100.00
20013;BME280;10167;42.852;23.042;2022-09-03T08:21:49;95073.88;;;19.53;100.00
20013;BME280;10167;42.852;23.042;2022-09-03T08:24:18;95076.13;;;19.65;100.00
20013;BME280;10167;42.852;23.042;2022-09-03T08:26:52;95076.28;;;19.54;100.00
20013;BME280;10167;42.852;23.042;2022-09-03T08:29:21;95084.34;;;19.54;100.00
20013;BME280;10167;42.852;23.042;2022-09-03T08:31:50;95075.56;;;19.44;100.00
20013;BME280;10167;42.852;23.042;2022-09-03T08:34:19;95079.19;;;19.58;100.00
20013;BME280;10167;42.852;23.042;2022-09-03T08:36:48;95085.38;;;19.58;100.00
20013;BME280;10167;42.852;23.042;2022-09-03T08:39:19;95081.38;;;19.56;100.00
20013;BME280;10167;42.852;23.042;2022-09-03T08:42:03;95080.78;;;19.35;100.00
20013;BME280;10167;42.852;23.042;2022-09-03T08:44:41;95076.94;;;19.41;100.00
20013;BME280;10167;42.852;23.042;2022-09-03T08:47:16;95074.56;;;19.40;100.00
20013;BME280;10167;42.852;23.042;2022-09-03T08:49:51;95079.19;;;19.58;100.00
20013;BME280;10167;42.852;23.042;2022-09-03T08:52:27;95076.59;;;19.48;100.00
20013;BME280;10167;42.852;23.042;2022-09-03T08:55:13;95074.63;;;19.58;100.00
20013;BME280;10167;42.852;23.042;2022-09-03T08:57:47;95075.72;;;19.57;100.00
20013;BME280;10167;42.852;23.042;2022-09-03T09:00:17;95078.13;;;19.78;100.00
20013;BME280;10167;42.852;23.042;2022-09-03T09:03:00;95082.56;;;19.87;100.00
20013;BME280;10167;42.852;23.042;2022-09-03T09:05:41;95083.16;;;19.84;100.00
20013;BME280;10167;42.852;23.042;2022-09-03T09:08:18;95082.34;;;20.03;100.00
20013;BME280;10167;42.852;23.042;2022-09-03T09:10:57;95082.94;;;20.18;100.00
20013;BME280;10167;42.852;23.042;2022-09-03T09:13:35;95091.03;;;20.32;100.00
20013;BME280;10167;42.852;23.042;2022-09-03T09:16:12;95085.84;;;20.41;100.00
20013;BME280;10167;42.852;23.042;2022-09-03T09:18:58;95087.44;;;20.42;100.00
20013;BME280;10167;42.852;23.042;2022-09-03T09:21:33;95097.66;;;20.58;100.00
20013;BME280;10167;42.852;23.042;2022-09-03T09:24:08;95095.78;;;20.73;100.00
20013;BME280;10167;42.852;23.042;2022-09-03T09:26:40;95101.69;;;20.75;100.00
20013;BME280;10167;42.852;23.042;2022-09-03T09:29:12;95103.91;;;20.86;100.00
20013;BME280;10167;42.852;23.042;2022-09-03T09:31:42;95103.25;;;21.08;100.00
20013;BME280;10167;42.852;23.042;2022-09-03T09:34:12;95108.19;;;21.20;100.00
20013;BME280;10167;42.852;23.042;2022-09-03T09:36:45;95101.59;;;21.53;100.00
20013;BME280;10167;42.852;23.042;2022-09-03T09:39:16;95110.06;;;21.47;100.00
20013;BME280;10167;42.852;23.042;2022-09-03T09:41:56;95100.53;;;22.04;100.00
20013;BME280;10167;42.852;23.042;2022-09-03T09:44:26;95109.31;;;22.23;100.00
20013;BME280;10167;42.852;23.042;2022-09-03T09:47:04;95099.53;;;22.36;100.00
20013;BME280;10167;42.852;23.042;2022-09-03T09:49:36;95102.44;;;22.39;100.00
20013;BME280;10167;42.852;23.042;2022-09-03T09:52:08;95098.94;;;22.61;100.00
20013;BME280;10167;42.852;23.042;2022-09-03T09:54:39;95097.88;;;22.71;100.00
20013;BME280;10167;42.852;23.042;2022-09-03T09:57:15;95099.91;;;22.79;100.00
20013;BME280;10167;42.852;23.042;2022-09-03T09:59:46;95105.84;;;22.90;100.00
20013;BME280;10167;42.852;23.042;2022-09-03T10:02:19;95099.97;;;23.27;100.00
20013;BME280;10167;42.852;23.042;2022-09-03T10:04:52;95105.94;;;23.46;100.00
20013;BME280;10167;42.852;23.042;2022-09-03T10:07:25;95102.91;;;23.79;100.00
20013;BME280;10167;42.852;23.042;2022-09-03T10:09:58;95107.84;;;23.46;100.00
20013;BME280;10167;42.852;23.042;2022-09-03T10:12:32;95109.19;;;23.57;100.00
20013;BME280;10167;42.852;23.042;2022-09-03T10:15:11;95107.28;;;23.58;100.00
20013;BME280;10167;42.852;23.042;2022-09-03T10:17:51;95105.06;;;23.29;100.00
20013;BME280;10167;42.852;23.042;2022-09-03T10:20:30;95109.34;;;23.21;100.00
20013;BME280;10167;42.852;23.042;2022-09-03T10:23:14;95113.22;;;23.77;100.00
20013;BME280;10167;42.852;23.042;2022-09-03T10:25:54;95108.06;;;23.27;100.00
20013;BME280;10167;42.852;23.042;2022-09-03T10:28:30;95116.06;;;23.72;100.00
20013;BME280;10167;42.852;23.042;2022-09-03T10:31:32;95101.19;;;24.17;100.00
20013;BME280;10167;42.852;23.042;2022-09-03T10:34:11;95106.34;;;23.62;100.00
20013;BME280;10167;42.852;23.042;2022-09-03T10:36:47;95108.16;;;23.84;100.00
20013;BME280;10167;42.852;23.042;2022-09-03T10:39:24;95106.66;;;24.35;100.00
20013;BME280;10167;42.852;23.042;2022-09-03T10:42:31;95100.91;;;24.28;100.00
20013;BME280;10167;42.852;23.042;2022-09-03T10:45:15;95108.50;;;24.08;100.00
20013;BME280;10167;42.852;23.042;2022-09-03T10:48:18;95109.59;;;23.99;100.00
20013;BME280;10167;42.852;23.042;2022-09-03T10:50:52;95100.13;;;23.53;100.00
20013;BME280;10167;42.852;23.042;2022-09-03T10:53:33;95106.84;;;23.73;100.00
20013;BME280;10167;42.852;23.042;2022-09-03T10:56:11;95100.50;;;23.69;100.00
20013;BME280;10167;42.852;23.042;2022-09-03T10:58:52;95092.34;;;23.60;100.00
20013;BME280;10167;42.852;23.042;2022-09-03T11:01:31;95092.22;;;23.74;100.00
20013;BME280;10167;42.852;23.042;2022-09-03T11:04:16;95090.09;;;24.28;100.00
20013;BME280;10167;42.852;23.042;2022-09-03T11:06:51;95097.41;;;24.44;100.00
20013;BME280;10167;42.852;23.042;2022-09-03T11:09:26;95111.56;;;25.02;100.00
20013;BME280;10167;42.852;23.042;2022-09-03T11:12:00;95105.78;;;25.58;100.00
20013;BME280;10167;42.852;23.042;2022-09-03T11:14:34;95114.97;;;26.04;100.00
20013;BME280;10167;42.852;23.042;2022-09-03T11:17:10;95107.31;;;26.27;100.00
20013;BME280;10167;42.852;23.042;2022-09-03T11:19:48;95111.31;;;26.29;100.00
20013;BME280;10167;42.852;23.042;2022-09-03T11:22:20;95109.59;;;26.46;100.00
20013;BME280;10167;42.852;23.042;2022-09-03T11:24:54;95102.31;;;26.91;100.00
20013;BME280;10167;42.852;23.042;2022-09-03T11:27:34;95108.19;;;27.14;99.62
20013;BME280;10167;42.852;23.042;2022-09-03T11:30:06;95103.22;;;27.28;96.94
20013;BME280;10167;42.852;23.042;2022-09-03T11:32:44;95103.47;;;27.35;96.54
20013;BME280;10167;42.852;23.042;2022-09-03T11:35:28;95094.28;;;27.40;98.21
20013;BME280;10167;42.852;23.042;2022-09-03T11:38:07;95097.47;;;27.30;99.51
20013;BME280;10167;42.852;23.042;2022-09-03T11:40:58;95103.47;;;27.35;97.60
20013;BME280;10167;42.852;23.042;2022-09-03T11:43:29;95102.34;;;27.48;95.92
20013;BME280;10167;42.852;23.042;2022-09-03T11:46:05;95097.28;;;27.59;96.93
20013;BME280;10167;42.852;23.042;2022-09-03T11:48:40;95091.19;;;27.74;96.17
20013;BME280;10167;42.852;23.042;2022-09-03T11:51:20;95096.72;;;27.90;93.88
20013;BME280;10167;42.852;23.042;2022-09-03T11:53:59;95092.03;;;28.03;94.17
20013;BME280;10167;42.852;23.042;2022-09-03T11:56:29;95087.38;;;28.28;95.05
20013;BME280;10167;42.852;23.042;2022-09-03T11:59:14;95087.03;;;28.29;94.26
20013;BME280;10167;42.852;23.042;2022-09-03T12:01:48;95087.72;;;28.26;90.85
20013;BME280;10167;42.852;23.042;2022-09-03T12:04:24;95078.28;;;28.11;93.43
20013;BME280;10167;42.852;23.042;2022-09-03T12:07:10;95084.28;;;28.41;90.83
20013;BME280;10167;42.852;23.042;2022-09-03T12:12:46;95076.41;;;29.08;86.92
20013;BME280;10167;42.852;23.042;2022-09-03T12:15:26;95068.97;;;29.83;87.01
20013;BME280;10167;42.852;23.042;2022-09-03T12:18:03;95068.75;;;30.43;86.47
20013;BME280;10167;42.852;23.042;2022-09-03T12:20:59;95066.66;;;30.94;81.58
20013;BME280;10167;42.852;23.042;2022-09-03T12:23:32;95065.34;;;31.26;83.29
20013;BME280;10167;42.852;23.042;2022-09-03T12:26:04;95063.19;;;30.39;84.04
20013;BME280;10167;42.852;23.042;2022-09-03T12:28:36;95061.84;;;29.79;85.38
20013;BME280;10167;42.852;23.042;2022-09-03T12:31:14;95060.25;;;29.62;84.82
20013;BME280;10167;42.852;23.042;2022-09-03T12:33:58;95060.53;;;29.41;85.50
20013;BME280;10167;42.852;23.042;2022-09-03T12:36:36;95051.00;;;28.76;87.35
20013;BME280;10167;42.852;23.042;2022-09-03T12:39:10;95055.41;;;29.24;85.22
20013;BME280;10167;42.852;23.042;2022-09-03T12:41:53;95059.84;;;29.95;84.15
20013;BME280;10167;42.852;23.042;2022-09-03T12:44:27;95052.09;;;30.67;80.76
20013;BME280;10167;42.852;23.042;2022-09-03T12:47:02;95045.94;;;31.12;79.68
20013;BME280;10167;42.852;23.042;2022-09-03T12:49:56;95048.50;;;32.23;76.90
20013;BME280;10167;42.852;23.042;2022-09-03T12:52:29;95054.97;;;32.37;77.22
20013;BME280;10167;42.852;23.042;2022-09-03T12:55:04;95043.63;;;32.39;73.10
20013;BME280;10167;42.852;23.042;2022-09-03T12:57:36;95040.47;;;32.37;73.08
20013;BME280;10167;42.852;23.042;2022-09-03T13:00:12;95043.63;;;32.39;74.41
20013;BME280;10167;42.852;23.042;2022-09-03T13:02:48;95044.69;;;32.61;73.35
20013;BME280;10167;42.852;23.042;2022-09-03T13:05:22;95042.50;;;32.17;72.76
20013;BME280;10167;42.852;23.042;2022-09-03T13:07:55;95032.84;;;31.97;73.38
20013;BME280;10167;42.852;23.042;2022-09-03T13:10:29;95020.75;;;31.03;76.92
20013;BME280;10167;42.852;23.042;2022-09-03T13:12:59;95019.22;;;30.63;79.27
20013;BME280;10167;42.852;23.042;2022-09-03T13:15:29;95023.97;;;29.77;79.94
20013;BME280;10167;42.852;23.042;2022-09-03T13:18:10;95010.00;;;29.32;81.94
20013;BME280;10167;42.852;23.042;2022-09-03T13:21:01;95018.00;;;29.24;82.52
20013;BME280;10167;42.852;23.042;2022-09-03T13:23:48;95021.28;;;29.30;83.09